METAR AND TAF INFORMATION
METAR FOR EHAM
ADDS - METARS form results

(0411 UTC 26 August 2019)
Data provider http://aviationweather.gov/metar/data/
 
METAR text: EHAM 260355Z 07002KT 9000 MIFG NSC 16/15 Q1019 TEMPO 7000
Conditions at: EHAM (AMSTERDAM/SCHIPH, NL) observed 0355 UTC 26 August 2019
Temperature: 16.0°C (61°F)
Dewpoint: 15.0°C (59°F) [RH = 94%]
Pressure (altimeter): 30.09 inches Hg (1019.0 mb)
Winds: from the ENE (70 degrees) at 2 MPH (2 knots; 1.0 m/s)
Visibility: 6 miles ( 9 km)
Ceiling: at least 12,000 feet AGL
Clouds: sky clear below 12,000 feet AGL
Weather: MIFG  (shallow fog)

METAR text: EHAM 260325Z 09002KT 9000 MIFG NSC 17/16 Q1019 TEMPO 7000
Conditions at: EHAM (AMSTERDAM/SCHIPH, NL) observed 0325 UTC 26 August 2019
Temperature: 17.0°C (63°F)
Dewpoint: 16.0°C (61°F) [RH = 94%]
Pressure (altimeter): 30.09 inches Hg (1019.0 mb)
Winds: from the E (90 degrees) at 2 MPH (2 knots; 1.0 m/s)
Visibility: 6 miles ( 9 km)
Ceiling: at least 12,000 feet AGL
Clouds: sky clear below 12,000 feet AGL
Weather: MIFG  (shallow fog)

Forecast for: EHAM (AMSTERDAM/SCHIPH, NL)
Text: TAF EHAM 252254Z 2600/2706 05005KT CAVOK
Forecast period: 0000 UTC 26 August 2019 to 0600 UTC 27 August 2019
Forecast type: FROM: standard forecast or significant change
Winds: from the NE (50 degrees) at 6 MPH (5 knots; 2.6 m/s)
Visibility: 6 or more miles 10+ km)
Ceiling: unknown
Clouds: missing
Weather: NSW  (no significant weather)
Text: PROB30
Forecast period: 0300 to 0600 UTC 26 August 2019
Forecast type: TEMPORARY: The following changes expected for less than half the time period
Visibility: 4 miles (7 km)
Ceiling: unknown
Clouds: missing
Weather: MIFG  (shallow fog)

 AIRPORT MAP

 RUNWAY INFORMATION

 AIRPORT FREQUENCIES
Type APP Name APP/DEP Frequency 119.05 MHZ
Type ARR Name ARR Frequency 118.4 MHZ
Type ATIS Name ATIS Frequency 108.4 MHZ
Type CLD Name CLNC DEL Frequency 121.975 MHZ
Type GND Name GND Frequency 121.7 MHZ
Type TWR Name TWR Frequency 119.225 MHZ

 AIRPORT NEAR NAVIGATION AIDS
Type VOR-DME Name Schiphol Frequency 108400 KHZ
Type VOR-DME Name Spijkerboor Frequency 113300 KHZ



2018 Air Astana Virtual Airline